sensor_id;sensor_type;location;lat;lon;timestamp;P1;durP1;ratioP1;P2;durP2;ratioP2
56073;SDS011;41950;55.840;37.442;2023-04-25T00:00:23;9.00;;;5.60;;
56073;SDS011;41950;55.840;37.442;2023-04-25T00:02:48;13.30;;;5.85;;
56073;SDS011;41950;55.840;37.442;2023-04-25T00:05:14;13.80;;;5.55;;
56073;SDS011;41950;55.840;37.442;2023-04-25T00:07:41;10.65;;;5.55;;
56073;SDS011;41950;55.840;37.442;2023-04-25T00:10:08;11.75;;;5.78;;
56073;SDS011;41950;55.840;37.442;2023-04-25T00:12:36;8.15;;;5.43;;
56073;SDS011;41950;55.840;37.442;2023-04-25T00:15:03;11.40;;;5.50;;
56073;SDS011;41950;55.840;37.442;2023-04-25T00:17:32;10.88;;;6.03;;
56073;SDS011;41950;55.840;37.442;2023-04-25T00:19:58;10.25;;;6.30;;
56073;SDS011;41950;55.840;37.442;2023-04-25T00:22:23;9.23;;;5.85;;
56073;SDS011;41950;55.840;37.442;2023-04-25T00:24:49;9.95;;;6.05;;
56073;SDS011;41950;55.840;37.442;2023-04-25T00:27:15;10.50;;;5.90;;
56073;SDS011;41950;55.840;37.442;2023-04-25T00:29:41;11.73;;;5.40;;
56073;SDS011;41950;55.840;37.442;2023-04-25T00:32:07;10.13;;;5.35;;
56073;SDS011;41950;55.840;37.442;2023-04-25T00:34:33;9.40;;;5.90;;
56073;SDS011;41950;55.840;37.442;2023-04-25T00:36:59;10.38;;;5.60;;
56073;SDS011;41950;55.840;37.442;2023-04-25T00:39:27;10.35;;;6.40;;
56073;SDS011;41950;55.840;37.442;2023-04-25T00:41:54;9.05;;;4.85;;
56073;SDS011;41950;55.840;37.442;2023-04-25T00:44:20;8.70;;;5.20;;
56073;SDS011;41950;55.840;37.442;2023-04-25T00:46:49;8.50;;;5.07;;
56073;SDS011;41950;55.840;37.442;2023-04-25T00:49:16;9.20;;;5.53;;
56073;SDS011;41950;55.840;37.442;2023-04-25T00:51:42;11.63;;;5.70;;
56073;SDS011;41950;55.840;37.442;2023-04-25T00:54:12;7.30;;;5.00;;
56073;SDS011;41950;55.840;37.442;2023-04-25T00:56:39;8.70;;;4.63;;
56073;SDS011;41950;55.840;37.442;2023-04-25T00:59:05;7.03;;;4.68;;
56073;SDS011;41950;55.840;37.442;2023-04-25T01:01:31;7.43;;;4.78;;
56073;SDS011;41950;55.840;37.442;2023-04-25T01:03:58;8.88;;;5.03;;
56073;SDS011;41950;55.840;37.442;2023-04-25T01:06:24;11.75;;;5.40;;
56073;SDS011;41950;55.840;37.442;2023-04-25T01:08:51;11.88;;;4.88;;
56073;SDS011;41950;55.840;37.442;2023-04-25T01:11:17;9.65;;;5.10;;
56073;SDS011;41950;55.840;37.442;2023-04-25T01:13:43;8.75;;;4.68;;
56073;SDS011;41950;55.840;37.442;2023-04-25T01:16:09;9.48;;;5.53;;
56073;SDS011;41950;55.840;37.442;2023-04-25T01:18:35;9.77;;;5.30;;
56073;SDS011;41950;55.840;37.442;2023-04-25T01:21:10;12.63;;;5.35;;
56073;SDS011;41950;55.840;37.442;2023-04-25T01:23:41;10.15;;;5.03;;
56073;SDS011;41950;55.840;37.442;2023-04-25T01:26:11;8.70;;;4.93;;
56073;SDS011;41950;55.840;37.442;2023-04-25T01:28:37;11.07;;;4.85;;
56073;SDS011;41950;55.840;37.442;2023-04-25T01:31:07;12.52;;;5.30;;
56073;SDS011;41950;55.840;37.442;2023-04-25T01:33:33;12.05;;;5.50;;
56073;SDS011;41950;55.840;37.442;2023-04-25T01:35:58;9.15;;;5.10;;
56073;SDS011;41950;55.840;37.442;2023-04-25T01:38:25;9.25;;;5.18;;
56073;SDS011;41950;55.840;37.442;2023-04-25T01:40:51;9.65;;;5.22;;
56073;SDS011;41950;55.840;37.442;2023-04-25T01:43:17;7.72;;;5.10;;
56073;SDS011;41950;55.840;37.442;2023-04-25T01:45:43;12.13;;;5.32;;
56073;SDS011;41950;55.840;37.442;2023-04-25T01:48:09;12.05;;;5.68;;
56073;SDS011;41950;55.840;37.442;2023-04-25T01:50:37;9.68;;;5.30;;
56073;SDS011;41950;55.840;37.442;2023-04-25T01:53:06;9.80;;;5.05;;
56073;SDS011;41950;55.840;37.442;2023-04-25T01:55:34;10.02;;;4.80;;
56073;SDS011;41950;55.840;37.442;2023-04-25T01:58:01;9.80;;;5.15;;
56073;SDS011;41950;55.840;37.442;2023-04-25T02:00:28;9.82;;;4.90;;
56073;SDS011;41950;55.840;37.442;2023-04-25T02:02:53;8.38;;;4.93;;
56073;SDS011;41950;55.840;37.442;2023-04-25T02:05:22;12.50;;;5.30;;
56073;SDS011;41950;55.840;37.442;2023-04-25T02:07:48;12.20;;;5.22;;
56073;SDS011;41950;55.840;37.442;2023-04-25T02:10:14;10.95;;;5.47;;
56073;SDS011;41950;55.840;37.442;2023-04-25T02:12:40;12.02;;;5.63;;
56073;SDS011;41950;55.840;37.442;2023-04-25T02:15:06;9.13;;;5.43;;
56073;SDS011;41950;55.840;37.442;2023-04-25T02:17:33;12.95;;;5.68;;
56073;SDS011;41950;55.840;37.442;2023-04-25T02:19:59;9.95;;;5.68;;
56073;SDS011;41950;55.840;37.442;2023-04-25T02:22:25;8.77;;;5.70;;
56073;SDS011;41950;55.840;37.442;2023-04-25T02:24:52;10.45;;;5.35;;
56073;SDS011;41950;55.840;37.442;2023-04-25T02:27:19;10.70;;;5.05;;
56073;SDS011;41950;55.840;37.442;2023-04-25T02:29:44;9.60;;;5.25;;
56073;SDS011;41950;55.840;37.442;2023-04-25T02:32:10;10.23;;;4.85;;
56073;SDS011;41950;55.840;37.442;2023-04-25T02:34:36;11.63;;;5.30;;
56073;SDS011;41950;55.840;37.442;2023-04-25T02:37:02;10.27;;;5.13;;
56073;SDS011;41950;55.840;37.442;2023-04-25T02:39:28;9.70;;;4.90;;
56073;SDS011;41950;55.840;37.442;2023-04-25T02:41:54;10.88;;;5.00;;
56073;SDS011;41950;55.840;37.442;2023-04-25T02:44:19;11.48;;;4.72;;
56073;SDS011;41950;55.840;37.442;2023-04-25T02:46:45;9.88;;;4.85;;
56073;SDS011;41950;55.840;37.442;2023-04-25T02:49:11;12.18;;;5.25;;
56073;SDS011;41950;55.840;37.442;2023-04-25T02:51:37;9.80;;;4.70;;
56073;SDS011;41950;55.840;37.442;2023-04-25T02:54:02;8.75;;;4.72;;
56073;SDS011;41950;55.840;37.442;2023-04-25T02:56:28;7.45;;;4.40;;
56073;SDS011;41950;55.840;37.442;2023-04-25T02:58:54;9.63;;;4.55;;
56073;SDS011;41950;55.840;37.442;2023-04-25T03:01:20;10.35;;;4.88;;
56073;SDS011;41950;55.840;37.442;2023-04-25T03:03:46;10.98;;;4.70;;
56073;SDS011;41950;55.840;37.442;2023-04-25T03:06:12;10.80;;;4.78;;
56073;SDS011;41950;55.840;37.442;2023-04-25T03:08:37;11.80;;;4.57;;
56073;SDS011;41950;55.840;37.442;2023-04-25T03:11:03;8.63;;;4.82;;
56073;SDS011;41950;55.840;37.442;2023-04-25T03:13:29;12.02;;;4.80;;
56073;SDS011;41950;55.840;37.442;2023-04-25T03:15:55;10.80;;;5.00;;
56073;SDS011;41950;55.840;37.442;2023-04-25T03:18:21;9.57;;;4.70;;
56073;SDS011;41950;55.840;37.442;2023-04-25T03:20:46;10.98;;;4.93;;
56073;SDS011;41950;55.840;37.442;2023-04-25T03:23:12;11.77;;;4.70;;
56073;SDS011;41950;55.840;37.442;2023-04-25T03:25:38;9.52;;;4.68;;
56073;SDS011;41950;55.840;37.442;2023-04-25T03:28:04;7.50;;;4.00;;
56073;SDS011;41950;55.840;37.442;2023-04-25T03:30:30;9.52;;;4.50;;
56073;SDS011;41950;55.840;37.442;2023-04-25T03:32:55;10.45;;;4.75;;
56073;SDS011;41950;55.840;37.442;2023-04-25T03:35:21;11.98;;;5.00;;
56073;SDS011;41950;55.840;37.442;2023-04-25T03:37:49;9.88;;;4.50;;
56073;SDS011;41950;55.840;37.442;2023-04-25T03:40:14;12.25;;;6.38;;
56073;SDS011;41950;55.840;37.442;2023-04-25T03:42:40;11.23;;;6.85;;
56073;SDS011;41950;55.840;37.442;2023-04-25T03:45:06;10.15;;;5.97;;
56073;SDS011;41950;55.840;37.442;2023-04-25T03:47:33;10.13;;;5.30;;
56073;SDS011;41950;55.840;37.442;2023-04-25T03:49:58;10.23;;;5.60;;
56073;SDS011;41950;55.840;37.442;2023-04-25T03:52:29;11.15;;;5.50;;
56073;SDS011;41950;55.840;37.442;2023-04-25T03:54:55;10.80;;;4.63;;
56073;SDS011;41950;55.840;37.442;2023-04-25T03:57:20;10.90;;;4.85;;
56073;SDS011;41950;55.840;37.442;2023-04-25T03:59:46;10.38;;;4.95;;
56073;SDS011;41950;55.840;37.442;2023-04-25T04:02:12;11.05;;;5.05;;
56073;SDS011;41950;55.840;37.442;2023-04-25T04:04:39;11.93;;;5.03;;
56073;SDS011;41950;55.840;37.442;2023-04-25T04:07:05;9.27;;;4.85;;
56073;SDS011;41950;55.840;37.442;2023-04-25T04:09:31;12.85;;;5.63;;
56073;SDS011;41950;55.840;37.442;2023-04-25T04:11:57;10.05;;;5.07;;
56073;SDS011;41950;55.840;37.442;2023-04-25T04:14:23;12.48;;;5.28;;
56073;SDS011;41950;55.840;37.442;2023-04-25T04:16:50;12.30;;;5.35;;
56073;SDS011;41950;55.840;37.442;2023-04-25T04:19:16;12.45;;;4.65;;
56073;SDS011;41950;55.840;37.442;2023-04-25T04:21:42;11.95;;;4.78;;
56073;SDS011;41950;55.840;37.442;2023-04-25T04:24:10;13.48;;;5.30;;
56073;SDS011;41950;55.840;37.442;2023-04-25T04:26:36;9.10;;;4.28;;
56073;SDS011;41950;55.840;37.442;2023-04-25T04:29:02;10.40;;;4.38;;
56073;SDS011;41950;55.840;37.442;2023-04-25T04:31:28;10.85;;;4.60;;
56073;SDS011;41950;55.840;37.442;2023-04-25T04:33:55;8.63;;;4.22;;
56073;SDS011;41950;55.840;37.442;2023-04-25T04:36:22;7.63;;;4.20;;
56073;SDS011;41950;55.840;37.442;2023-04-25T04:38:49;6.90;;;4.30;;
56073;SDS011;41950;55.840;37.442;2023-04-25T04:41:15;10.10;;;4.25;;
56073;SDS011;41950;55.840;37.442;2023-04-25T04:43:41;9.70;;;4.00;;
56073;SDS011;41950;55.840;37.442;2023-04-25T04:46:07;8.93;;;4.30;;
56073;SDS011;41950;55.840;37.442;2023-04-25T04:48:32;12.68;;;4.28;;
56073;SDS011;41950;55.840;37.442;2023-04-25T04:50:59;8.52;;;4.10;;
56073;SDS011;41950;55.840;37.442;2023-04-25T04:53:25;9.10;;;4.32;;
56073;SDS011;41950;55.840;37.442;2023-04-25T04:55:51;30.33;;;5.80;;
56073;SDS011;41950;55.840;37.442;2023-04-25T04:58:17;8.93;;;4.18;;
56073;SDS011;41950;55.840;37.442;2023-04-25T05:00:44;10.70;;;4.60;;
56073;SDS011;41950;55.840;37.442;2023-04-25T05:03:10;16.02;;;4.95;;
56073;SDS011;41950;55.840;37.442;2023-04-25T05:05:36;10.38;;;5.10;;
56073;SDS011;41950;55.840;37.442;2023-04-25T05:08:05;8.20;;;4.80;;
56073;SDS011;41950;55.840;37.442;2023-04-25T05:10:31;11.25;;;5.78;;
56073;SDS011;41950;55.840;37.442;2023-04-25T05:12:57;11.68;;;5.53;;
56073;SDS011;41950;55.840;37.442;2023-04-25T05:15:23;12.50;;;5.93;;
56073;SDS011;41950;55.840;37.442;2023-04-25T05:17:49;10.40;;;5.53;;
56073;SDS011;41950;55.840;37.442;2023-04-25T05:20:15;12.02;;;6.32;;
56073;SDS011;41950;55.840;37.442;2023-04-25T05:22:41;9.88;;;5.88;;
56073;SDS011;41950;55.840;37.442;2023-04-25T05:25:10;8.43;;;6.25;;
56073;SDS011;41950;55.840;37.442;2023-04-25T05:27:36;13.40;;;6.85;;
56073;SDS011;41950;55.840;37.442;2023-04-25T05:30:01;17.58;;;7.03;;
56073;SDS011;41950;55.840;37.442;2023-04-25T05:32:29;10.18;;;6.93;;
56073;SDS011;41950;55.840;37.442;2023-04-25T05:34:55;16.35;;;7.53;;
56073;SDS011;41950;55.840;37.442;2023-04-25T05:37:21;11.63;;;7.13;;
56073;SDS011;41950;55.840;37.442;2023-04-25T05:39:46;14.55;;;7.47;;
56073;SDS011;41950;55.840;37.442;2023-04-25T05:42:13;17.85;;;7.28;;
56073;SDS011;41950;55.840;37.442;2023-04-25T05:44:39;13.88;;;6.90;;
56073;SDS011;41950;55.840;37.442;2023-04-25T05:47:05;13.45;;;7.32;;
56073;SDS011;41950;55.840;37.442;2023-04-25T05:49:31;12.75;;;7.78;;
56073;SDS011;41950;55.840;37.442;2023-04-25T05:51:56;11.90;;;7.00;;
56073;SDS011;41950;55.840;37.442;2023-04-25T05:54:22;11.02;;;7.25;;
56073;SDS011;41950;55.840;37.442;2023-04-25T05:56:48;14.27;;;7.50;;
56073;SDS011;41950;55.840;37.442;2023-04-25T05:59:14;14.10;;;7.40;;
56073;SDS011;41950;55.840;37.442;2023-04-25T06:01:39;14.95;;;7.90;;
56073;SDS011;41950;55.840;37.442;2023-04-25T06:04:13;11.60;;;7.82;;
56073;SDS011;41950;55.840;37.442;2023-04-25T06:06:38;13.63;;;7.60;;
56073;SDS011;41950;55.840;37.442;2023-04-25T06:09:04;14.40;;;7.15;;
56073;SDS011;41950;55.840;37.442;2023-04-25T06:11:30;10.40;;;7.15;;
56073;SDS011;41950;55.840;37.442;2023-04-25T06:13:56;11.77;;;7.78;;
56073;SDS011;41950;55.840;37.442;2023-04-25T06:16:21;12.80;;;7.28;;
56073;SDS011;41950;55.840;37.442;2023-04-25T06:18:49;11.48;;;6.53;;
56073;SDS011;41950;55.840;37.442;2023-04-25T06:21:15;10.13;;;6.10;;
56073;SDS011;41950;55.840;37.442;2023-04-25T06:23:41;10.70;;;6.15;;
56073;SDS011;41950;55.840;37.442;2023-04-25T06:26:06;10.00;;;6.20;;
56073;SDS011;41950;55.840;37.442;2023-04-25T06:28:32;9.15;;;6.13;;
56073;SDS011;41950;55.840;37.442;2023-04-25T06:30:58;10.10;;;5.45;;
56073;SDS011;41950;55.840;37.442;2023-04-25T06:33:24;11.40;;;5.28;;
56073;SDS011;41950;55.840;37.442;2023-04-25T06:35:50;11.70;;;6.30;;
56073;SDS011;41950;55.840;37.442;2023-04-25T06:38:15;11.75;;;5.75;;
56073;SDS011;41950;55.840;37.442;2023-04-25T06:40:41;11.20;;;6.30;;
56073;SDS011;41950;55.840;37.442;2023-04-25T06:43:07;12.75;;;7.03;;
56073;SDS011;41950;55.840;37.442;2023-04-25T06:45:33;8.77;;;4.95;;
56073;SDS011;41950;55.840;37.442;2023-04-25T06:47:58;7.32;;;4.68;;
56073;SDS011;41950;55.840;37.442;2023-04-25T06:50:24;9.23;;;5.10;;
56073;SDS011;41950;55.840;37.442;2023-04-25T06:52:50;7.78;;;4.90;;
56073;SDS011;41950;55.840;37.442;2023-04-25T06:55:15;9.52;;;5.43;;
56073;SDS011;41950;55.840;37.442;2023-04-25T06:57:41;9.50;;;5.30;;
56073;SDS011;41950;55.840;37.442;2023-04-25T07:00:07;10.10;;;4.47;;
56073;SDS011;41950;55.840;37.442;2023-04-25T07:02:35;10.68;;;4.60;;
56073;SDS011;41950;55.840;37.442;2023-04-25T07:05:01;9.45;;;4.70;;
56073;SDS011;41950;55.840;37.442;2023-04-25T07:07:29;9.48;;;4.88;;
56073;SDS011;41950;55.840;37.442;2023-04-25T07:09:56;7.55;;;4.00;;
56073;SDS011;41950;55.840;37.442;2023-04-25T07:12:21;8.00;;;4.72;;
56073;SDS011;41950;55.840;37.442;2023-04-25T07:14:47;7.80;;;4.20;;
56073;SDS011;41950;55.840;37.442;2023-04-25T07:17:13;8.68;;;3.78;;
56073;SDS011;41950;55.840;37.442;2023-04-25T07:19:39;8.27;;;4.05;;
56073;SDS011;41950;55.840;37.442;2023-04-25T07:22:06;6.30;;;4.05;;
56073;SDS011;41950;55.840;37.442;2023-04-25T07:24:32;6.57;;;4.47;;
56073;SDS011;41950;55.840;37.442;2023-04-25T07:26:58;6.15;;;3.50;;
56073;SDS011;41950;55.840;37.442;2023-04-25T07:29:24;8.30;;;4.25;;
56073;SDS011;41950;55.840;37.442;2023-04-25T07:31:49;8.13;;;4.30;;
56073;SDS011;41950;55.840;37.442;2023-04-25T07:34:15;5.57;;;3.55;;
56073;SDS011;41950;55.840;37.442;2023-04-25T07:36:44;8.18;;;3.45;;
56073;SDS011;41950;55.840;37.442;2023-04-25T07:39:10;6.00;;;3.33;;
56073;SDS011;41950;55.840;37.442;2023-04-25T07:41:36;7.35;;;3.40;;
56073;SDS011;41950;55.840;37.442;2023-04-25T07:44:01;8.13;;;3.97;;
56073;SDS011;41950;55.840;37.442;2023-04-25T07:46:27;7.13;;;3.63;;
56073;SDS011;41950;55.840;37.442;2023-04-25T07:48:53;10.50;;;3.83;;
56073;SDS011;41950;55.840;37.442;2023-04-25T07:51:18;11.43;;;4.20;;
56073;SDS011;41950;55.840;37.442;2023-04-25T07:53:45;7.60;;;4.30;;
56073;SDS011;41950;55.840;37.442;2023-04-25T07:56:11;7.43;;;4.25;;
56073;SDS011;41950;55.840;37.442;2023-04-25T07:58:37;9.10;;;4.10;;
56073;SDS011;41950;55.840;37.442;2023-04-25T08:01:03;7.50;;;4.00;;
56073;SDS011;41950;55.840;37.442;2023-04-25T08:03:29;8.30;;;4.65;;
56073;SDS011;41950;55.840;37.442;2023-04-25T08:05:55;8.95;;;4.70;;
56073;SDS011;41950;55.840;37.442;2023-04-25T08:08:21;8.65;;;4.68;;
56073;SDS011;41950;55.840;37.442;2023-04-25T08:10:47;9.80;;;5.30;;
56073;SDS011;41950;55.840;37.442;2023-04-25T08:13:13;8.75;;;5.28;;
56073;SDS011;41950;55.840;37.442;2023-04-25T08:15:39;9.13;;;4.75;;
56073;SDS011;41950;55.840;37.442;2023-04-25T08:18:05;7.20;;;4.05;;
56073;SDS011;41950;55.840;37.442;2023-04-25T08:20:31;9.45;;;4.07;;
56073;SDS011;41950;55.840;37.442;2023-04-25T08:22:56;11.70;;;4.13;;
56073;SDS011;41950;55.840;37.442;2023-04-25T08:25:26;8.80;;;4.18;;
56073;SDS011;41950;55.840;37.442;2023-04-25T08:27:52;7.28;;;4.20;;
56073;SDS011;41950;55.840;37.442;2023-04-25T08:30:18;9.13;;;4.45;;
56073;SDS011;41950;55.840;37.442;2023-04-25T08:32:44;7.78;;;4.20;;
56073;SDS011;41950;55.840;37.442;2023-04-25T08:35:10;9.05;;;4.63;;
56073;SDS011;41950;55.840;37.442;2023-04-25T08:37:36;7.57;;;3.97;;
56073;SDS011;41950;55.840;37.442;2023-04-25T08:40:03;9.52;;;4.18;;
56073;SDS011;41950;55.840;37.442;2023-04-25T08:42:33;7.85;;;4.32;;
56073;SDS011;41950;55.840;37.442;2023-04-25T08:45:02;7.85;;;4.22;;
56073;SDS011;41950;55.840;37.442;2023-04-25T08:47:30;8.65;;;4.15;;
56073;SDS011;41950;55.840;37.442;2023-04-25T08:50:00;8.10;;;4.15;;
56073;SDS011;41950;55.840;37.442;2023-04-25T08:52:30;10.07;;;4.72;;
56073;SDS011;41950;55.840;37.442;2023-04-25T08:55:01;13.82;;;4.57;;
56073;SDS011;41950;55.840;37.442;2023-04-25T08:57:29;11.07;;;4.47;;
56073;SDS011;41950;55.840;37.442;2023-04-25T08:59:57;6.65;;;4.40;;
56073;SDS011;41950;55.840;37.442;2023-04-25T09:02:24;7.78;;;4.10;;
56073;SDS011;41950;55.840;37.442;2023-04-25T09:04:55;7.18;;;4.00;;
56073;SDS011;41950;55.840;37.442;2023-04-25T09:07:22;6.93;;;3.78;;
56073;SDS011;41950;55.840;37.442;2023-04-25T09:09:48;10.68;;;3.97;;
56073;SDS011;41950;55.840;37.442;2023-04-25T09:12:14;11.68;;;4.18;;
56073;SDS011;41950;55.840;37.442;2023-04-25T09:14:39;6.30;;;3.63;;
56073;SDS011;41950;55.840;37.442;2023-04-25T09:17:07;7.60;;;4.38;;
56073;SDS011;41950;55.840;37.442;2023-04-25T09:19:35;7.38;;;3.90;;
56073;SDS011;41950;55.840;37.442;2023-04-25T09:22:04;8.15;;;3.80;;
56073;SDS011;41950;55.840;37.442;2023-04-25T09:24:40;8.00;;;3.53;;
56073;SDS011;41950;55.840;37.442;2023-04-25T09:27:10;6.20;;;3.22;;
56073;SDS011;41950;55.840;37.442;2023-04-25T09:29:39;8.68;;;3.97;;
56073;SDS011;41950;55.840;37.442;2023-04-25T09:32:14;7.63;;;3.25;;
56073;SDS011;41950;55.840;37.442;2023-04-25T09:34:54;7.18;;;3.67;;
56073;SDS011;41950;55.840;37.442;2023-04-25T09:37:27;6.28;;;3.47;;
56073;SDS011;41950;55.840;37.442;2023-04-25T09:39:55;9.07;;;3.63;;
56073;SDS011;41950;55.840;37.442;2023-04-25T09:42:24;7.95;;;4.13;;
56073;SDS011;41950;55.840;37.442;2023-04-25T09:44:51;7.63;;;3.35;;
56073;SDS011;41950;55.840;37.442;2023-04-25T09:47:19;7.75;;;3.35;;
56073;SDS011;41950;55.840;37.442;2023-04-25T09:49:47;7.00;;;3.60;;
56073;SDS011;41950;55.840;37.442;2023-04-25T09:52:14;8.43;;;3.55;;
56073;SDS011;41950;55.840;37.442;2023-04-25T09:54:42;9.10;;;3.78;;
56073;SDS011;41950;55.840;37.442;2023-04-25T09:57:15;8.30;;;3.47;;
56073;SDS011;41950;55.840;37.442;2023-04-25T09:59:43;6.50;;;3.17;;
56073;SDS011;41950;55.840;37.442;2023-04-25T10:02:11;5.20;;;3.25;;
56073;SDS011;41950;55.840;37.442;2023-04-25T10:04:38;7.43;;;3.15;;
56073;SDS011;41950;55.840;37.442;2023-04-25T10:07:09;10.55;;;3.65;;
56073;SDS011;41950;55.840;37.442;2023-04-25T10:09:39;6.45;;;3.40;;
56073;SDS011;41950;55.840;37.442;2023-04-25T10:12:06;5.68;;;3.45;;
56073;SDS011;41950;55.840;37.442;2023-04-25T10:14:33;7.43;;;3.80;;
56073;SDS011;41950;55.840;37.442;2023-04-25T10:17:00;7.88;;;4.07;;
56073;SDS011;41950;55.840;37.442;2023-04-25T10:19:27;7.90;;;3.90;;
56073;SDS011;41950;55.840;37.442;2023-04-25T10:21:56;7.85;;;4.20;;
56073;SDS011;41950;55.840;37.442;2023-04-25T10:24:30;8.15;;;4.00;;
56073;SDS011;41950;55.840;37.442;2023-04-25T10:26:56;6.35;;;4.10;;
56073;SDS011;41950;55.840;37.442;2023-04-25T10:29:23;7.93;;;3.90;;
56073;SDS011;41950;55.840;37.442;2023-04-25T10:31:50;8.85;;;4.47;;
56073;SDS011;41950;55.840;37.442;2023-04-25T10:34:16;8.55;;;5.10;;
56073;SDS011;41950;55.840;37.442;2023-04-25T10:36:42;8.02;;;4.57;;
56073;SDS011;41950;55.840;37.442;2023-04-25T10:44:15;9.15;;;4.03;;
56073;SDS011;41950;55.840;37.442;2023-04-25T10:46:41;7.95;;;4.00;;
56073;SDS011;41950;55.840;37.442;2023-04-25T10:49:09;6.20;;;3.80;;
56073;SDS011;41950;55.840;37.442;2023-04-25T10:51:37;8.95;;;4.00;;
56073;SDS011;41950;55.840;37.442;2023-04-25T10:54:07;8.68;;;4.97;;
56073;SDS011;41950;55.840;37.442;2023-04-25T10:56:36;7.73;;;4.37;;
56073;SDS011;41950;55.840;37.442;2023-04-25T10:59:05;7.18;;;4.85;;
56073;SDS011;41950;55.840;37.442;2023-04-25T11:01:36;8.35;;;4.63;;
56073;SDS011;41950;55.840;37.442;2023-04-25T11:04:04;6.78;;;4.38;;
56073;SDS011;41950;55.840;37.442;2023-04-25T11:09:13;5.97;;;3.65;;
56073;SDS011;41950;55.840;37.442;2023-04-25T11:11:39;6.28;;;3.60;;
56073;SDS011;41950;55.840;37.442;2023-04-25T11:14:05;9.13;;;3.92;;
56073;SDS011;41950;55.840;37.442;2023-04-25T11:16:31;8.45;;;3.50;;
56073;SDS011;41950;55.840;37.442;2023-04-25T11:18:57;5.25;;;3.15;;
56073;SDS011;41950;55.840;37.442;2023-04-25T11:21:26;5.30;;;3.00;;
56073;SDS011;41950;55.840;37.442;2023-04-25T11:23:53;4.80;;;2.92;;
56073;SDS011;41950;55.840;37.442;2023-04-25T11:26:21;5.43;;;2.95;;
56073;SDS011;41950;55.840;37.442;2023-04-25T11:28:48;7.63;;;3.10;;
56073;SDS011;41950;55.840;37.442;2023-04-25T11:31:15;5.20;;;2.70;;
56073;SDS011;41950;55.840;37.442;2023-04-25T11:33:40;5.38;;;2.72;;
56073;SDS011;41950;55.840;37.442;2023-04-25T11:36:08;4.18;;;2.65;;
56073;SDS011;41950;55.840;37.442;2023-04-25T11:38:34;4.78;;;3.10;;
56073;SDS011;41950;55.840;37.442;2023-04-25T11:41:00;5.55;;;2.88;;
56073;SDS011;41950;55.840;37.442;2023-04-25T11:43:26;4.57;;;2.70;;
56073;SDS011;41950;55.840;37.442;2023-04-25T11:45:52;7.82;;;2.90;;
56073;SDS011;41950;55.840;37.442;2023-04-25T11:48:18;5.22;;;2.70;;
56073;SDS011;41950;55.840;37.442;2023-04-25T11:50:45;5.32;;;2.60;;
56073;SDS011;41950;55.840;37.442;2023-04-25T11:53:11;6.05;;;2.78;;
56073;SDS011;41950;55.840;37.442;2023-04-25T11:55:37;5.63;;;2.55;;
56073;SDS011;41950;55.840;37.442;2023-04-25T11:58:04;5.00;;;2.33;;
56073;SDS011;41950;55.840;37.442;2023-04-25T12:00:30;4.65;;;2.30;;
56073;SDS011;41950;55.840;37.442;2023-04-25T12:02:56;4.95;;;2.20;;
56073;SDS011;41950;55.840;37.442;2023-04-25T12:05:24;3.92;;;2.33;;
56073;SDS011;41950;55.840;37.442;2023-04-25T12:07:51;5.25;;;2.20;;
56073;SDS011;41950;55.840;37.442;2023-04-25T12:10:18;5.57;;;2.00;;
56073;SDS011;41950;55.840;37.442;2023-04-25T12:12:45;5.53;;;2.60;;
56073;SDS011;41950;55.840;37.442;2023-04-25T12:15:12;5.25;;;2.50;;
56073;SDS011;41950;55.840;37.442;2023-04-25T12:17:45;5.93;;;2.20;;
56073;SDS011;41950;55.840;37.442;2023-04-25T12:20:13;4.90;;;2.65;;
56073;SDS011;41950;55.840;37.442;2023-04-25T12:22:49;5.70;;;2.40;;
56073;SDS011;41950;55.840;37.442;2023-04-25T12:25:37;5.32;;;2.28;;
56073;SDS011;41950;55.840;37.442;2023-04-25T12:31:01;3.42;;;2.10;;
56073;SDS011;41950;55.840;37.442;2023-04-25T12:33:30;3.92;;;2.08;;
56073;SDS011;41950;55.840;37.442;2023-04-25T12:35:57;5.53;;;2.05;;
56073;SDS011;41950;55.840;37.442;2023-04-25T12:38:24;5.88;;;2.20;;
56073;SDS011;41950;55.840;37.442;2023-04-25T12:40:51;4.93;;;2.53;;
56073;SDS011;41950;55.840;37.442;2023-04-25T12:43:18;7.68;;;2.60;;
56073;SDS011;41950;55.840;37.442;2023-04-25T12:45:44;7.38;;;2.38;;
56073;SDS011;41950;55.840;37.442;2023-04-25T12:48:10;4.32;;;2.20;;
56073;SDS011;41950;55.840;37.442;2023-04-25T12:50:36;6.55;;;2.47;;
56073;SDS011;41950;55.840;37.442;2023-04-25T12:53:02;5.47;;;2.92;;
56073;SDS011;41950;55.840;37.442;2023-04-25T12:55:27;5.15;;;2.42;;
56073;SDS011;41950;55.840;37.442;2023-04-25T12:57:53;4.95;;;2.63;;
56073;SDS011;41950;55.840;37.442;2023-04-25T13:00:19;5.60;;;2.33;;
56073;SDS011;41950;55.840;37.442;2023-04-25T13:02:45;5.60;;;2.58;;
56073;SDS011;41950;55.840;37.442;2023-04-25T13:05:14;5.07;;;2.60;;
56073;SDS011;41950;55.840;37.442;2023-04-25T13:07:39;6.05;;;3.00;;
56073;SDS011;41950;55.840;37.442;2023-04-25T13:10:12;6.88;;;2.70;;
56073;SDS011;41950;55.840;37.442;2023-04-25T13:12:47;5.85;;;2.55;;
56073;SDS011;41950;55.840;37.442;2023-04-25T13:15:13;5.53;;;2.50;;
56073;SDS011;41950;55.840;37.442;2023-04-25T13:17:41;7.30;;;2.85;;
56073;SDS011;41950;55.840;37.442;2023-04-25T13:20:07;6.38;;;2.60;;
56073;SDS011;41950;55.840;37.442;2023-04-25T13:22:35;6.43;;;2.58;;
56073;SDS011;41950;55.840;37.442;2023-04-25T13:25:06;5.10;;;2.85;;
56073;SDS011;41950;55.840;37.442;2023-04-25T13:27:36;7.38;;;2.80;;
56073;SDS011;41950;55.840;37.442;2023-04-25T13:30:15;3.92;;;2.35;;
56073;SDS011;41950;55.840;37.442;2023-04-25T13:32:41;5.80;;;2.72;;
56073;SDS011;41950;55.840;37.442;2023-04-25T13:35:08;5.70;;;2.42;;
56073;SDS011;41950;55.840;37.442;2023-04-25T13:37:35;5.07;;;2.47;;
56073;SDS011;41950;55.840;37.442;2023-04-25T13:40:06;5.60;;;2.75;;
56073;SDS011;41950;55.840;37.442;2023-04-25T13:42:36;4.03;;;2.20;;
56073;SDS011;41950;55.840;37.442;2023-04-25T13:45:02;5.20;;;2.45;;
56073;SDS011;41950;55.840;37.442;2023-04-25T13:47:34;5.13;;;2.40;;
56073;SDS011;41950;55.840;37.442;2023-04-25T13:50:00;5.90;;;2.80;;
56073;SDS011;41950;55.840;37.442;2023-04-25T13:52:30;5.63;;;2.80;;
56073;SDS011;41950;55.840;37.442;2023-04-25T13:54:57;7.20;;;2.85;;
56073;SDS011;41950;55.840;37.442;2023-04-25T13:57:23;6.90;;;3.08;;
56073;SDS011;41950;55.840;37.442;2023-04-25T13:59:49;5.18;;;3.00;;
56073;SDS011;41950;55.840;37.442;2023-04-25T14:02:15;8.23;;;3.22;;
56073;SDS011;41950;55.840;37.442;2023-04-25T14:04:50;9.35;;;3.50;;
56073;SDS011;41950;55.840;37.442;2023-04-25T14:07:31;6.45;;;2.97;;
56073;SDS011;41950;55.840;37.442;2023-04-25T14:09:58;7.78;;;2.65;;
56073;SDS011;41950;55.840;37.442;2023-04-25T14:12:24;6.85;;;3.03;;
56073;SDS011;41950;55.840;37.442;2023-04-25T14:14:50;5.95;;;2.97;;
56073;SDS011;41950;55.840;37.442;2023-04-25T14:17:18;6.40;;;3.10;;
56073;SDS011;41950;55.840;37.442;2023-04-25T14:19:44;6.88;;;3.13;;
56073;SDS011;41950;55.840;37.442;2023-04-25T14:22:13;4.97;;;3.10;;
56073;SDS011;41950;55.840;37.442;2023-04-25T14:24:40;7.07;;;3.60;;
56073;SDS011;41950;55.840;37.442;2023-04-25T14:27:06;6.35;;;2.88;;
56073;SDS011;41950;55.840;37.442;2023-04-25T14:29:32;6.93;;;3.53;;
56073;SDS011;41950;55.840;37.442;2023-04-25T14:32:01;6.13;;;2.90;;
56073;SDS011;41950;55.840;37.442;2023-04-25T14:34:28;6.25;;;2.53;;
56073;SDS011;41950;55.840;37.442;2023-04-25T14:36:55;8.15;;;3.05;;
56073;SDS011;41950;55.840;37.442;2023-04-25T14:39:20;6.38;;;2.70;;